This is the latest recevied weather packets stored in our database for station/object EA2CW-13. If no packets are shown the sender has not sent any weather packets the latest 10 day(s).
| Time | Temp. | Humidity | Pressure | Rain* | Wind** | Luminosity | Snow |
|---|---|---|---|---|---|---|---|
| 1777538515 | 20° C | 70% | 1052.6 hPa | - | - | 34 W/m² | - |
| 1777537579 | 19.44° C | 65% | 1052.4 hPa | - | - | 16 W/m² | - |
| 1777536644 | 18.89° C | 69% | 1052.3 hPa | - | - | 12 W/m² | - |
| 1777535708 | 18.33° C | 71% | 1051.9 hPa | - | - | 12 W/m² | - |
| 1777534772 | 18.33° C | 72% | 1051.6 hPa | - | - | 13 W/m² | - |
| 1777533836 | 17.78° C | 73% | 1051.5 hPa | - | - | 15 W/m² | - |
| 1777532900 | 17.78° C | 74% | 1051.5 hPa | - | - | 12 W/m² | - |
| 1777531964 | 17.22° C | 75% | 1051.3 hPa | - | - | 11 W/m² | - |
| 1777531028 | 17.22° C | 75% | 1051.2 hPa | - | - | 14 W/m² | - |
| 1777530092 | 17.22° C | 76% | 1051.1 hPa | - | - | 10 W/m² | - |
| 1777529156 | 16.67° C | 77% | 1050.8 hPa | - | - | 8 W/m² | - |
| 1777528220 | 16.67° C | 77% | 1050.4 hPa | - | - | 6 W/m² | - |
| 1777527284 | 16.11° C | 76% | 1050.2 hPa | - | - | 3 W/m² | - |
| 1777526348 | 16.67° C | 76% | 1050.1 hPa | - | - | 1 W/m² | - |
| 1777525412 | 17.22° C | 76% | 1050.2 hPa | - | - | 0 W/m² | - |
| 1777524476 | 16.67° C | 77% | 1049.9 hPa | - | - | 0 W/m² | - |
| 1777523540 | 17.22° C | 78% | 1049.7 hPa | - | - | 0 W/m² | - |
| 1777522604 | 16.67° C | 78% | 1049.6 hPa | - | - | 0 W/m² | - |
| 1777521668 | 16.67° C | 78% | 1049.5 hPa | - | - | 0 W/m² | - |
| 1777520732 | 16.67° C | 77% | 1049.4 hPa | - | - | 0 W/m² | - |
| 1777519796 | 17.22° C | 75% | 1049.3 hPa | - | - | 0 W/m² | - |
| 1777518860 | 17.22° C | 75% | 1049 hPa | - | - | 0 W/m² | - |
| 1777517924 | 17.22° C | 74% | 1048.3 hPa | - | - | 0 W/m² | - |
| 1777516988 | 17.22° C | 74% | 1048.6 hPa | - | - | 0 W/m² | - |
| 1777516052 | 17.22° C | 75% | 1048.7 hPa | - | - | 0 W/m² | - |
* Rain since midnight (hover to see other rain measurements)
** Current wind speed in m/s (hover to see current wind gust speed)